LOT26 EDDV-EPWA
Flight info
| Callsign | LOT26 |
|---|---|
| Flight time | 1h 12m |
| Altitude | 37000 |
| Route | POVEL3H POVEL L986 MAG Z20 ESIKA DCT OBANI N858 SUBIX L980 ADVAB P150 BIMPA |
| Aircraft | B738/M-SDE2E3FGHIRWXY/LB1 |
Departure
| Time | 2026-05-05 19:09 |
|---|---|
| Airport | Hannover Airport (EDDV) |
Arrival
| Time | 2026-05-05 20:22 |
|---|---|
| Airport | Warsaw Chopin Airport (EPWA) |
| Time | Latitude | Longitude | Altitude | Speed | Heading |
|---|---|---|---|---|---|
| 2026-05-05 18:39 | 52.45701 | 9.69336 | 178 ft | 0 kts | 183° |
| 2026-05-05 18:59 | 52.45712 | 9.69337 | 178 ft | 4 kts | 190° |
| 2026-05-05 19:00 | 52.45737 | 9.69351 | 178 ft | 4 kts | 218° |
| 2026-05-05 19:00 | 52.45754 | 9.69383 | 178 ft | 4 kts | 249° |
| 2026-05-05 19:00 | 52.45758 | 9.69418 | 178 ft | 1 kts | 272° |
| 2026-05-05 19:02 | 52.45758 | 9.69407 | 178 ft | 4 kts | 271° |
| 2026-05-05 19:02 | 52.45760 | 9.69326 | 178 ft | 9 kts | 272° |
| 2026-05-05 19:03 | 52.45760 | 9.69219 | 177 ft | 10 kts | 261° |
| 2026-05-05 19:03 | 52.45714 | 9.69148 | 177 ft | 10 kts | 189° |
| 2026-05-05 19:03 | 52.45649 | 9.69141 | 178 ft | 9 kts | 195° |
| 2026-05-05 19:03 | 52.45625 | 9.69053 | 178 ft | 10 kts | 270° |
| 2026-05-05 19:04 | 52.45628 | 9.68944 | 178 ft | 9 kts | 272° |
| 2026-05-05 19:04 | 52.45631 | 9.68839 | 180 ft | 10 kts | 273° |
| 2026-05-05 19:04 | 52.45635 | 9.68716 | 181 ft | 12 kts | 272° |
| 2026-05-05 19:04 | 52.45638 | 9.68552 | 180 ft | 16 kts | 272° |
| 2026-05-05 19:05 | 52.45644 | 9.68353 | 182 ft | 18 kts | 272° |
| 2026-05-05 19:05 | 52.45650 | 9.68155 | 182 ft | 17 kts | 273° |
| 2026-05-05 19:05 | 52.45655 | 9.67978 | 181 ft | 11 kts | 273° |
| 2026-05-05 19:05 | 52.45659 | 9.67851 | 182 ft | 11 kts | 273° |
| 2026-05-05 19:06 | 52.45633 | 9.67741 | 182 ft | 11 kts | 220° |
| 2026-05-05 19:06 | 52.45600 | 9.67708 | 183 ft | 0 kts | 197° |
| 2026-05-05 19:07 | 52.45600 | 9.67707 | 183 ft | 0 kts | 197° |
| 2026-05-05 19:07 | 52.45574 | 9.67701 | 183 ft | 6 kts | 185° |
| 2026-05-05 19:08 | 52.45535 | 9.67698 | 183 ft | 6 kts | 181° |
| 2026-05-05 19:08 | 52.45500 | 9.67720 | 182 ft | 6 kts | 122° |
| 2026-05-05 19:08 | 52.45496 | 9.67767 | 182 ft | 0 kts | 92° |
| 2026-05-05 19:08 | 52.45493 | 9.67888 | 181 ft | 39 kts | 92° |
| 2026-05-05 19:09 | 52.45470 | 9.68736 | 178 ft | 107 kts | 92° |
| 2026-05-05 19:09 | 52.45428 | 9.70267 | 206 ft | 158 kts | 89° |
| 2026-05-05 19:09 | 52.45361 | 9.72173 | 640 ft | 180 kts | 92° |
| 2026-05-05 19:09 | 52.45285 | 9.74294 | 1298 ft | 184 kts | 91° |
| 2026-05-05 19:10 | 52.45230 | 9.76399 | 1928 ft | 191 kts | 91° |
| 2026-05-05 19:10 | 52.45177 | 9.78602 | 2353 ft | 198 kts | 91° |
| 2026-05-05 19:10 | 52.45119 | 9.80898 | 2777 ft | 208 kts | 91° |
| 2026-05-05 19:10 | 52.45053 | 9.83333 | 3258 ft | 218 kts | 92° |
| 2026-05-05 19:11 | 52.44980 | 9.85857 | 3819 ft | 223 kts | 92° |
| 2026-05-05 19:11 | 52.44903 | 9.88416 | 4449 ft | 225 kts | 92° |
| 2026-05-05 19:11 | 52.44825 | 9.90996 | 5034 ft | 228 kts | 92° |
| 2026-05-05 19:11 | 52.44674 | 9.93599 | 5604 ft | 232 kts | 105° |
| 2026-05-05 19:12 | 52.43994 | 9.96096 | 5859 ft | 252 kts | 120° |
| 2026-05-05 19:12 | 52.43073 | 9.98681 | 6102 ft | 272 kts | 121° |
| 2026-05-05 19:12 | 52.42097 | 10.01388 | 6630 ft | 279 kts | 122° |
| 2026-05-05 19:12 | 52.41104 | 10.04144 | 7273 ft | 281 kts | 121° |
| 2026-05-05 19:13 | 52.40108 | 10.06917 | 7947 ft | 285 kts | 122° |
| 2026-05-05 19:13 | 52.39099 | 10.09740 | 8627 ft | 287 kts | 122° |
| 2026-05-05 19:13 | 52.38142 | 10.12616 | 9344 ft | 292 kts | 111° |
| 2026-05-05 19:13 | 52.37888 | 10.15922 | 9992 ft | 296 kts | 89° |
| 2026-05-05 19:14 | 52.37969 | 10.19372 | 10320 ft | 314 kts | 88° |
| 2026-05-05 19:14 | 52.38084 | 10.23053 | 10471 ft | 333 kts | 88° |
| 2026-05-05 19:14 | 52.38202 | 10.26953 | 10623 ft | 351 kts | 88° |
| 2026-05-05 19:14 | 52.38312 | 10.30977 | 10839 ft | 365 kts | 88° |
| 2026-05-05 19:15 | 52.38412 | 10.35174 | 11327 ft | 371 kts | 89° |
| 2026-05-05 19:15 | 52.38502 | 10.39398 | 11948 ft | 372 kts | 89° |
| 2026-05-05 19:15 | 52.38582 | 10.43648 | 12528 ft | 376 kts | 89° |
| 2026-05-05 19:15 | 52.38657 | 10.47960 | 13085 ft | 380 kts | 89° |
| 2026-05-05 19:16 | 52.38728 | 10.52290 | 13713 ft | 382 kts | 90° |
| 2026-05-05 19:16 | 52.38795 | 10.56657 | 14247 ft | 385 kts | 90° |
| 2026-05-05 19:16 | 52.38861 | 10.61073 | 14801 ft | 388 kts | 90° |
| 2026-05-05 19:16 | 52.38925 | 10.65506 | 15342 ft | 392 kts | 90° |
| 2026-05-05 19:17 | 52.38987 | 10.69986 | 15899 ft | 395 kts | 90° |
| 2026-05-05 19:17 | 52.39048 | 10.74444 | 16443 ft | 398 kts | 90° |
| 2026-05-05 19:17 | 52.39108 | 10.78990 | 16975 ft | 401 kts | 90° |
| 2026-05-05 19:17 | 52.39166 | 10.83570 | 17497 ft | 404 kts | 90° |
| 2026-05-05 19:18 | 52.39224 | 10.88257 | 18023 ft | 408 kts | 90° |
| 2026-05-05 19:18 | 52.39281 | 10.92919 | 18478 ft | 411 kts | 90° |
| 2026-05-05 19:18 | 52.39334 | 10.97553 | 18901 ft | 414 kts | 90° |
| 2026-05-05 19:18 | 52.39388 | 11.02300 | 19303 ft | 418 kts | 90° |
| 2026-05-05 19:19 | 52.39439 | 11.07082 | 19720 ft | 422 kts | 91° |
| 2026-05-05 19:19 | 52.39490 | 11.11920 | 20156 ft | 425 kts | 91° |
| 2026-05-05 19:19 | 52.39538 | 11.16748 | 20568 ft | 428 kts | 91° |
| 2026-05-05 19:19 | 52.39585 | 11.21637 | 20971 ft | 431 kts | 91° |
| 2026-05-05 19:20 | 52.39630 | 11.26561 | 21363 ft | 434 kts | 91° |
| 2026-05-05 19:20 | 52.39674 | 11.31533 | 21757 ft | 437 kts | 91° |
| 2026-05-05 19:20 | 52.39716 | 11.36528 | 22141 ft | 440 kts | 91° |
| 2026-05-05 19:20 | 52.39756 | 11.41553 | 22512 ft | 443 kts | 91° |
| 2026-05-05 19:21 | 52.39794 | 11.46619 | 22889 ft | 446 kts | 91° |
| 2026-05-05 19:21 | 52.39830 | 11.51716 | 23248 ft | 449 kts | 91° |
| 2026-05-05 19:21 | 52.39864 | 11.56851 | 23575 ft | 452 kts | 92° |
| 2026-05-05 19:21 | 52.39896 | 11.61949 | 23889 ft | 454 kts | 92° |
| 2026-05-05 19:22 | 52.39927 | 11.67202 | 24225 ft | 456 kts | 92° |
| 2026-05-05 19:22 | 52.39954 | 11.72327 | 24546 ft | 457 kts | 92° |
| 2026-05-05 19:22 | 52.39980 | 11.77548 | 24846 ft | 459 kts | 92° |
| 2026-05-05 19:22 | 52.40003 | 11.82791 | 25131 ft | 462 kts | 92° |
| 2026-05-05 19:23 | 52.40025 | 11.88075 | 25418 ft | 464 kts | 92° |
| 2026-05-05 19:23 | 52.40044 | 11.93367 | 25713 ft | 466 kts | 92° |
| 2026-05-05 19:23 | 52.40060 | 11.98690 | 25996 ft | 468 kts | 92° |
| 2026-05-05 19:23 | 52.40075 | 12.04038 | 26212 ft | 470 kts | 92° |
| 2026-05-05 19:24 | 52.40087 | 12.09394 | 26510 ft | 471 kts | 92° |
| 2026-05-05 19:24 | 52.40097 | 12.14772 | 26816 ft | 472 kts | 93° |
| 2026-05-05 19:24 | 52.40104 | 12.20081 | 27120 ft | 472 kts | 93° |
| 2026-05-05 19:24 | 52.40109 | 12.25454 | 27438 ft | 471 kts | 93° |
| 2026-05-05 19:25 | 52.40112 | 12.30815 | 27767 ft | 471 kts | 93° |
| 2026-05-05 19:25 | 52.40111 | 12.36233 | 27784 ft | 479 kts | 93° |
| 2026-05-05 19:25 | 52.40107 | 12.41709 | 27928 ft | 483 kts | 93° |
| 2026-05-05 19:25 | 52.40101 | 12.47220 | 28176 ft | 484 kts | 93° |
| 2026-05-05 19:26 | 52.40093 | 12.52751 | 28394 ft | 486 kts | 93° |
| 2026-05-05 19:26 | 52.40084 | 12.58302 | 28583 ft | 489 kts | 93° |
| 2026-05-05 19:26 | 52.40071 | 12.63889 | 28741 ft | 492 kts | 93° |
| 2026-05-05 19:26 | 52.40055 | 12.69500 | 28914 ft | 494 kts | 93° |
| 2026-05-05 19:27 | 52.40034 | 12.75121 | 29373 ft | 490 kts | 94° |
| 2026-05-05 19:27 | 52.40030 | 12.80618 | 29691 ft | 490 kts | 92° |
| 2026-05-05 19:27 | 52.40126 | 12.86211 | 29868 ft | 493 kts | 90° |
| 2026-05-05 19:27 | 52.40278 | 12.91851 | 30130 ft | 492 kts | 90° |
| 2026-05-05 19:28 | 52.40406 | 12.97439 | 30511 ft | 489 kts | 91° |
| 2026-05-05 19:28 | 52.40483 | 13.03009 | 30698 ft | 490 kts | 91° |
| 2026-05-05 19:28 | 52.40606 | 13.08599 | 30825 ft | 493 kts | 90° |
| 2026-05-05 19:28 | 52.40784 | 13.14215 | 31035 ft | 494 kts | 90° |
| 2026-05-05 19:29 | 52.40971 | 13.19830 | 31335 ft | 492 kts | 90° |
| 2026-05-05 19:29 | 52.41144 | 13.25418 | 31627 ft | 491 kts | 90° |
| 2026-05-05 19:29 | 52.41297 | 13.31012 | 31862 ft | 491 kts | 90° |
| 2026-05-05 19:29 | 52.41432 | 13.36606 | 32080 ft | 491 kts | 91° |
| 2026-05-05 19:30 | 52.41553 | 13.42196 | 32329 ft | 491 kts | 91° |
| 2026-05-05 19:30 | 52.41666 | 13.47772 | 32593 ft | 490 kts | 91° |
| 2026-05-05 19:30 | 52.41772 | 13.53288 | 32822 ft | 490 kts | 91° |
| 2026-05-05 19:30 | 52.41876 | 13.58881 | 33048 ft | 490 kts | 91° |
| 2026-05-05 19:31 | 52.41979 | 13.64476 | 33284 ft | 490 kts | 91° |
| 2026-05-05 19:31 | 52.42079 | 13.70056 | 33529 ft | 490 kts | 91° |
| 2026-05-05 19:31 | 52.42177 | 13.75639 | 33776 ft | 489 kts | 91° |
| 2026-05-05 19:31 | 52.42273 | 13.81213 | 33985 ft | 489 kts | 91° |
| 2026-05-05 19:32 | 52.42367 | 13.86782 | 34193 ft | 489 kts | 91° |
| 2026-05-05 19:32 | 52.42457 | 13.92279 | 34406 ft | 488 kts | 91° |
| 2026-05-05 19:32 | 52.42546 | 13.97850 | 34618 ft | 488 kts | 91° |
| 2026-05-05 19:32 | 52.42632 | 14.03429 | 34675 ft | 492 kts | 91° |
| 2026-05-05 19:33 | 52.42715 | 14.09045 | 34781 ft | 493 kts | 90° |
| 2026-05-05 19:33 | 52.42796 | 14.14654 | 35050 ft | 491 kts | 90° |
| 2026-05-05 19:33 | 52.42874 | 14.20237 | 35320 ft | 489 kts | 91° |
| 2026-05-05 19:33 | 52.42950 | 14.25806 | 35515 ft | 489 kts | 91° |
| 2026-05-05 19:34 | 52.43023 | 14.31384 | 35666 ft | 490 kts | 91° |
| 2026-05-05 19:34 | 52.43093 | 14.36980 | 35837 ft | 490 kts | 91° |
| 2026-05-05 19:34 | 52.43161 | 14.42567 | 36041 ft | 489 kts | 91° |
| 2026-05-05 19:35 | 52.43288 | 14.53690 | 36492 ft | 487 kts | 91° |
| 2026-05-05 19:35 | 52.43347 | 14.59236 | 36660 ft | 487 kts | 91° |
| 2026-05-05 19:35 | 52.43404 | 14.64782 | 36796 ft | 487 kts | 91° |
| 2026-05-05 19:36 | 52.43510 | 14.75931 | 36822 ft | 490 kts | 91° |
| 2026-05-05 19:36 | 52.43606 | 14.87055 | 36821 ft | 486 kts | 91° |
| 2026-05-05 19:37 | 52.43691 | 14.98104 | 36830 ft | 483 kts | 91° |
| 2026-05-05 19:37 | 52.43764 | 15.09026 | 36818 ft | 481 kts | 91° |
| 2026-05-05 19:38 | 52.43827 | 15.19975 | 36836 ft | 480 kts | 91° |
| 2026-05-05 19:38 | 52.43880 | 15.30945 | 36841 ft | 481 kts | 91° |
| 2026-05-05 19:39 | 52.43923 | 15.41917 | 36835 ft | 482 kts | 91° |
| 2026-05-05 19:39 | 52.43957 | 15.52948 | 36833 ft | 484 kts | 91° |
| 2026-05-05 19:40 | 52.43980 | 15.63953 | 36833 ft | 486 kts | 91° |
| 2026-05-05 19:40 | 52.43993 | 15.75037 | 36835 ft | 487 kts | 91° |
| 2026-05-05 19:41 | 52.43995 | 15.86159 | 36832 ft | 488 kts | 91° |
| 2026-05-05 19:41 | 52.43987 | 15.97314 | 36837 ft | 489 kts | 91° |
| 2026-05-05 19:42 | 52.43969 | 16.08470 | 36828 ft | 489 kts | 91° |
| 2026-05-05 19:42 | 52.43941 | 16.19611 | 36835 ft | 488 kts | 91° |
| 2026-05-05 19:43 | 52.43909 | 16.28865 | 36831 ft | 487 kts | 91° |
| 2026-05-05 19:43 | 52.43861 | 16.39967 | 36827 ft | 486 kts | 92° |
| 2026-05-05 19:44 | 52.43803 | 16.51034 | 36830 ft | 485 kts | 92° |
| 2026-05-05 19:44 | 52.43734 | 16.62075 | 36827 ft | 484 kts | 92° |
| 2026-05-05 19:45 | 52.43656 | 16.73086 | 36823 ft | 483 kts | 92° |
| 2026-05-05 19:45 | 52.43568 | 16.84084 | 36829 ft | 482 kts | 92° |
| 2026-05-05 19:46 | 52.43469 | 16.95049 | 36826 ft | 481 kts | 92° |
| 2026-05-05 19:46 | 52.43361 | 17.06016 | 36828 ft | 481 kts | 92° |
| 2026-05-05 19:47 | 52.43243 | 17.16886 | 36816 ft | 481 kts | 92° |
| 2026-05-05 19:47 | 52.43114 | 17.27848 | 36826 ft | 480 kts | 92° |
| 2026-05-05 19:48 | 52.42976 | 17.38796 | 36819 ft | 481 kts | 92° |
| 2026-05-05 19:48 | 52.42827 | 17.49746 | 36823 ft | 481 kts | 92° |
| 2026-05-05 19:49 | 52.42668 | 17.60707 | 36836 ft | 481 kts | 92° |
| 2026-05-05 19:49 | 52.42499 | 17.71688 | 36821 ft | 482 kts | 92° |
| 2026-05-05 19:50 | 52.42319 | 17.82679 | 36827 ft | 482 kts | 92° |
| 2026-05-05 19:50 | 52.42129 | 17.93647 | 36824 ft | 482 kts | 92° |
| 2026-05-05 19:51 | 52.41929 | 18.04641 | 36648 ft | 485 kts | 92° |
| 2026-05-05 19:51 | 52.41824 | 18.10192 | 36108 ft | 488 kts | 92° |
| 2026-05-05 19:51 | 52.41716 | 18.15727 | 35527 ft | 485 kts | 92° |
| 2026-05-05 19:51 | 52.41607 | 18.21254 | 34883 ft | 485 kts | 93° |
| 2026-05-05 19:52 | 52.41495 | 18.26782 | 34255 ft | 485 kts | 93° |
| 2026-05-05 19:52 | 52.41381 | 18.32233 | 33589 ft | 485 kts | 93° |
| 2026-05-05 19:52 | 52.41264 | 18.37765 | 32846 ft | 485 kts | 93° |
| 2026-05-05 19:52 | 52.41144 | 18.43289 | 32132 ft | 485 kts | 93° |
| 2026-05-05 19:53 | 52.41021 | 18.48815 | 31423 ft | 485 kts | 93° |
| 2026-05-05 19:53 | 52.40896 | 18.54343 | 30701 ft | 486 kts | 93° |
| 2026-05-05 19:53 | 52.40769 | 18.59857 | 30190 ft | 482 kts | 93° |
| 2026-05-05 19:53 | 52.40640 | 18.65320 | 29646 ft | 479 kts | 93° |
| 2026-05-05 19:54 | 52.40510 | 18.70753 | 29047 ft | 474 kts | 93° |
| 2026-05-05 19:54 | 52.40379 | 18.76115 | 28548 ft | 468 kts | 93° |
| 2026-05-05 19:54 | 52.40247 | 18.81422 | 28021 ft | 464 kts | 94° |
| 2026-05-05 19:54 | 52.40114 | 18.86671 | 27489 ft | 459 kts | 94° |
| 2026-05-05 19:55 | 52.39979 | 18.91868 | 26980 ft | 455 kts | 94° |
| 2026-05-05 19:55 | 52.39839 | 18.97032 | 26470 ft | 451 kts | 95° |
| 2026-05-05 19:55 | 52.39619 | 19.02103 | 26210 ft | 441 kts | 96° |
| 2026-05-05 19:55 | 52.39344 | 19.07075 | 25953 ft | 438 kts | 97° |
| 2026-05-05 19:56 | 52.39045 | 19.12095 | 25728 ft | 446 kts | 97° |
| 2026-05-05 19:56 | 52.38740 | 19.17176 | 25488 ft | 449 kts | 97° |
| 2026-05-05 19:56 | 52.38446 | 19.22182 | 25225 ft | 445 kts | 97° |
| 2026-05-05 19:56 | 52.38159 | 19.27196 | 24976 ft | 440 kts | 97° |
| 2026-05-05 19:57 | 52.37879 | 19.32154 | 24628 ft | 435 kts | 97° |
| 2026-05-05 19:57 | 52.37602 | 19.37075 | 24162 ft | 432 kts | 97° |
| 2026-05-05 19:57 | 52.37327 | 19.41952 | 23700 ft | 429 kts | 97° |
| 2026-05-05 19:57 | 52.37053 | 19.46791 | 23199 ft | 426 kts | 97° |
| 2026-05-05 19:58 | 52.36778 | 19.51612 | 22647 ft | 424 kts | 97° |
| 2026-05-05 19:58 | 52.36503 | 19.56390 | 22137 ft | 421 kts | 97° |
| 2026-05-05 19:58 | 52.36227 | 19.61139 | 21635 ft | 418 kts | 97° |
| 2026-05-05 19:58 | 52.35952 | 19.65858 | 21152 ft | 415 kts | 97° |
| 2026-05-05 19:59 | 52.35676 | 19.70538 | 20676 ft | 412 kts | 97° |
| 2026-05-05 19:59 | 52.35401 | 19.75193 | 20205 ft | 409 kts | 97° |
| 2026-05-05 19:59 | 52.35125 | 19.79810 | 19739 ft | 407 kts | 97° |
| 2026-05-05 19:59 | 52.34853 | 19.84342 | 19280 ft | 405 kts | 97° |
| 2026-05-05 20:00 | 52.34577 | 19.88916 | 18817 ft | 403 kts | 97° |
| 2026-05-05 20:00 | 52.34300 | 19.93460 | 18360 ft | 401 kts | 97° |
| 2026-05-05 20:00 | 52.34023 | 19.97985 | 17871 ft | 399 kts | 97° |
| 2026-05-05 20:00 | 52.33746 | 20.02488 | 17354 ft | 397 kts | 97° |
| 2026-05-05 20:01 | 52.33469 | 20.06963 | 16872 ft | 394 kts | 98° |
| 2026-05-05 20:01 | 52.33192 | 20.11406 | 16405 ft | 392 kts | 98° |
| 2026-05-05 20:01 | 52.32915 | 20.15821 | 15947 ft | 389 kts | 98° |
| 2026-05-05 20:01 | 52.32638 | 20.20216 | 15476 ft | 387 kts | 98° |
| 2026-05-05 20:02 | 52.32361 | 20.24572 | 15029 ft | 384 kts | 98° |
| 2026-05-05 20:02 | 52.32084 | 20.28911 | 14588 ft | 383 kts | 98° |
| 2026-05-05 20:02 | 52.31807 | 20.33227 | 14155 ft | 381 kts | 98° |
| 2026-05-05 20:02 | 52.31528 | 20.37537 | 13706 ft | 380 kts | 98° |
| 2026-05-05 20:03 | 52.31250 | 20.41825 | 13212 ft | 379 kts | 98° |
| 2026-05-05 20:03 | 52.30970 | 20.46097 | 12732 ft | 377 kts | 98° |
| 2026-05-05 20:03 | 52.30691 | 20.50345 | 12274 ft | 375 kts | 98° |
| 2026-05-05 20:03 | 52.30411 | 20.54575 | 11826 ft | 373 kts | 98° |
| 2026-05-05 20:04 | 52.30133 | 20.58772 | 11389 ft | 371 kts | 98° |
| 2026-05-05 20:04 | 52.29857 | 20.62894 | 10967 ft | 369 kts | 98° |
| 2026-05-05 20:04 | 52.29578 | 20.67049 | 10633 ft | 364 kts | 98° |
| 2026-05-05 20:04 | 52.29306 | 20.71099 | 10476 ft | 354 kts | 99° |
| 2026-05-05 20:05 | 52.29040 | 20.75036 | 10318 ft | 344 kts | 99° |
| 2026-05-05 20:05 | 52.28779 | 20.78875 | 10156 ft | 336 kts | 99° |
| 2026-05-05 20:05 | 52.28523 | 20.82617 | 10018 ft | 328 kts | 99° |
| 2026-05-05 20:05 | 52.28271 | 20.86274 | 9881 ft | 320 kts | 99° |
| 2026-05-05 20:06 | 52.28025 | 20.89842 | 9766 ft | 312 kts | 99° |
| 2026-05-05 20:06 | 52.27785 | 20.93299 | 9757 ft | 300 kts | 100° |
| 2026-05-05 20:06 | 52.27546 | 20.96706 | 9221 ft | 308 kts | 100° |
| 2026-05-05 20:06 | 52.27237 | 21.00142 | 8861 ft | 302 kts | 110° |
| 2026-05-05 20:07 | 52.26253 | 21.03009 | 8550 ft | 282 kts | 137° |
| 2026-05-05 20:07 | 52.24784 | 21.04956 | 8266 ft | 268 kts | 155° |
| 2026-05-05 20:07 | 52.23150 | 21.06381 | 7998 ft | 265 kts | 157° |
| 2026-05-05 20:07 | 52.21520 | 21.07752 | 7726 ft | 263 kts | 157° |
| 2026-05-05 20:08 | 52.19916 | 21.09113 | 7591 ft | 256 kts | 156° |
| 2026-05-05 20:08 | 52.18362 | 21.10443 | 7464 ft | 249 kts | 156° |
| 2026-05-05 20:08 | 52.16853 | 21.11738 | 7405 ft | 241 kts | 156° |
| 2026-05-05 20:08 | 52.15384 | 21.13000 | 7374 ft | 238 kts | 156° |
| 2026-05-05 20:09 | 52.13911 | 21.14278 | 7208 ft | 241 kts | 156° |
| 2026-05-05 20:09 | 52.12433 | 21.15572 | 6969 ft | 241 kts | 156° |
| 2026-05-05 20:09 | 52.10963 | 21.16859 | 6729 ft | 239 kts | 156° |
| 2026-05-05 20:09 | 52.09530 | 21.18117 | 6519 ft | 229 kts | 156° |
| 2026-05-05 20:10 | 52.08169 | 21.19310 | 6250 ft | 220 kts | 156° |
| 2026-05-05 20:10 | 52.06855 | 21.20460 | 5994 ft | 210 kts | 156° |
| 2026-05-05 20:10 | 52.05576 | 21.21577 | 5774 ft | 208 kts | 157° |
| 2026-05-05 20:10 | 52.04300 | 21.22688 | 5561 ft | 208 kts | 157° |
| 2026-05-05 20:11 | 52.03022 | 21.23800 | 5333 ft | 208 kts | 157° |
| 2026-05-05 20:11 | 52.01744 | 21.24912 | 5131 ft | 209 kts | 157° |
| 2026-05-05 20:11 | 52.00470 | 21.26019 | 5014 ft | 204 kts | 157° |
| 2026-05-05 20:11 | 51.99221 | 21.27097 | 4942 ft | 204 kts | 157° |
| 2026-05-05 20:12 | 51.97951 | 21.28188 | 4897 ft | 208 kts | 157° |
| 2026-05-05 20:12 | 51.96664 | 21.29294 | 4831 ft | 209 kts | 157° |
| 2026-05-05 20:12 | 51.95382 | 21.30397 | 4763 ft | 208 kts | 157° |
| 2026-05-05 20:12 | 51.94108 | 21.31494 | 4706 ft | 207 kts | 157° |
| 2026-05-05 20:13 | 51.92835 | 21.32588 | 4638 ft | 206 kts | 157° |
| 2026-05-05 20:13 | 51.91570 | 21.33675 | 4586 ft | 206 kts | 158° |
| 2026-05-05 20:13 | 51.90255 | 21.34529 | 4514 ft | 201 kts | 181° |
| 2026-05-05 20:13 | 51.88971 | 21.34009 | 4500 ft | 188 kts | 217° |
| 2026-05-05 20:14 | 51.88076 | 21.32526 | 4454 ft | 184 kts | 239° |
| 2026-05-05 20:14 | 51.87474 | 21.30717 | 4404 ft | 182 kts | 241° |
| 2026-05-05 20:14 | 51.86878 | 21.28904 | 4346 ft | 182 kts | 241° |
| 2026-05-05 20:14 | 51.86292 | 21.27116 | 4298 ft | 181 kts | 243° |
| 2026-05-05 20:15 | 51.86029 | 21.25150 | 4211 ft | 186 kts | 279° |
| 2026-05-05 20:15 | 51.86763 | 21.23439 | 4200 ft | 195 kts | 319° |
| 2026-05-05 20:15 | 51.87916 | 21.22199 | 4173 ft | 202 kts | 320° |
| 2026-05-05 20:15 | 51.89103 | 21.20964 | 4104 ft | 203 kts | 323° |
| 2026-05-05 20:16 | 51.90318 | 21.19809 | 4035 ft | 202 kts | 324° |
| 2026-05-05 20:16 | 51.91544 | 21.18700 | 3952 ft | 202 kts | 325° |
| 2026-05-05 20:16 | 51.92775 | 21.17605 | 3859 ft | 202 kts | 325° |
| 2026-05-05 20:16 | 51.94012 | 21.16515 | 3764 ft | 203 kts | 325° |
| 2026-05-05 20:17 | 51.95255 | 21.15422 | 3668 ft | 203 kts | 325° |
| 2026-05-05 20:17 | 51.96500 | 21.14328 | 3568 ft | 203 kts | 325° |
| 2026-05-05 20:17 | 51.97719 | 21.13261 | 3460 ft | 194 kts | 325° |
| 2026-05-05 20:17 | 51.98882 | 21.12243 | 3345 ft | 186 kts | 325° |
| 2026-05-05 20:18 | 52.00014 | 21.11246 | 3255 ft | 187 kts | 324° |
| 2026-05-05 20:18 | 52.01199 | 21.10199 | 3193 ft | 199 kts | 325° |
| 2026-05-05 20:18 | 52.02416 | 21.09131 | 3096 ft | 198 kts | 326° |
| 2026-05-05 20:18 | 52.03620 | 21.08077 | 2938 ft | 194 kts | 325° |
| 2026-05-05 20:19 | 52.04757 | 21.07082 | 2705 ft | 182 kts | 324° |
| 2026-05-05 20:19 | 52.05841 | 21.06132 | 2482 ft | 172 kts | 324° |
| 2026-05-05 20:19 | 52.06882 | 21.05214 | 2261 ft | 171 kts | 327° |
| 2026-05-05 20:19 | 52.07937 | 21.04284 | 2039 ft | 174 kts | 329° |
| 2026-05-05 20:20 | 52.08999 | 21.03355 | 1796 ft | 172 kts | 329° |
| 2026-05-05 20:20 | 52.10047 | 21.02433 | 1590 ft | 172 kts | 334° |
| 2026-05-05 20:20 | 52.11082 | 21.01520 | 1399 ft | 168 kts | 333° |
| 2026-05-05 20:20 | 52.12074 | 21.00612 | 1145 ft | 158 kts | 333° |
| 2026-05-05 20:21 | 52.13039 | 20.99798 | 902 ft | 156 kts | 333° |
| 2026-05-05 20:21 | 52.14019 | 20.98944 | 719 ft | 165 kts | 331° |
| 2026-05-05 20:21 | 52.15049 | 20.98034 | 525 ft | 170 kts | 331° |
| 2026-05-05 20:21 | 52.16075 | 20.97149 | 357 ft | 161 kts | 332° |
| 2026-05-05 20:22 | 52.16869 | 20.96453 | 334 ft | 56 kts | 332° |
| 2026-05-05 20:22 | 52.17084 | 20.96269 | 336 ft | 26 kts | 333° |
| 2026-05-05 20:22 | 52.17214 | 20.96239 | 336 ft | 10 kts | 3° |
| 2026-05-05 20:22 | 52.17264 | 20.96243 | 336 ft | 0 kts | 1° |
| 2026-05-05 20:23 | 52.17267 | 20.96243 | 337 ft | 3 kts | 1° |
| 2026-05-05 20:23 | 52.17331 | 20.96246 | 333 ft | 16 kts | 1° |
| 2026-05-05 20:24 | 52.17419 | 20.96354 | 336 ft | 20 kts | 62° |
| 2026-05-05 20:24 | 52.17470 | 20.96550 | 338 ft | 15 kts | 99° |
| 2026-05-05 20:24 | 52.17383 | 20.96641 | 337 ft | 21 kts | 153° |
| 2026-05-05 20:24 | 52.17305 | 20.96709 | 337 ft | 2 kts | 151° |
| 2026-05-05 20:25 | 52.17304 | 20.96710 | 336 ft | 0 kts | 151° |
| 2026-05-05 20:25 | 52.17303 | 20.96711 | 336 ft | 0 kts | 151° |
| 2026-05-05 20:25 | 52.17296 | 20.96717 | 337 ft | 6 kts | 150° |
| 2026-05-05 20:26 | 52.17235 | 20.96772 | 336 ft | 14 kts | 152° |
| 2026-05-05 20:26 | 52.17148 | 20.96849 | 334 ft | 12 kts | 151° |
| 2026-05-05 20:26 | 52.17115 | 20.96893 | 338 ft | 3 kts | 104° |
| 2026-05-05 20:26 | 52.17122 | 20.96928 | 334 ft | 7 kts | 63° |
| 2026-05-05 20:27 | 52.17123 | 20.96932 | 335 ft | 0 kts | 63° |